Skip Navigation LinksHome page > Weather > Current weather Skip Navigation Links

Current Weather

Orange County, Montgomery, N.Y.

For information only: do not use for flight planning or navigation.
Latest weather
Observation time Saturday, July 11, 2020 9:54 PM EDT
Local time Saturday, July 11, 2020 10:53 PM EDT
Flight conditions Visual Meteorological Conditions
Winds
Wind direction South-Southwest (210°)
Wind speed 7 mph
Visibility 10 mi.
Sky condition
Ceiling unlimited
Sky clear
Temperature 70°F
Dewpoint 69°F
Altimeter 29.65 in.Hg
Derived measurements
Relative humidity 97%
Density altitude 1717 ft.
Sea-level pressure 29.64 in.Hg
Remarks
Fully automated report.
System requires maintenance.
Automated weather observing station with precipitation discriminator.
METAR KMGJ 120154Z AUTO 21006KT 10SM CLR 21/21 A2965 RMK AO2 SLP038 T02110206 $

Settings

Location code

InnerDrive.Weather 4.0.6770.0 Release CLR 4.0.30319.42000
Copyright ©2018 Inner Drive Technology. All rights reserved. Portions Copyright ©1986-2018 David Braverman.

Find weather

Site navigation


Skip Navigation Links

Place info

Page info

PayPal - The safer, easier way to pay online!

Return home.

Copyright ©2020 Inner Drive Technology. Purveyors of fine, hand-crafted computer software. Page printed 2020-07-12T02:53:10 UTC.